createdAt,value
2023-01-22T00:01:41.192Z,88.28
2023-01-22T00:14:33.150Z,88.38
2023-01-22T00:17:00.427Z,88.03
2023-01-22T00:19:27.448Z,88.25
2023-01-22T00:21:54.568Z,88.40
2023-01-22T00:24:21.349Z,88.26
2023-01-22T00:26:48.108Z,88.01
2023-01-22T00:29:15.099Z,87.81
2023-01-22T00:31:43.431Z,87.50
2023-01-22T00:34:10.580Z,87.58
2023-01-22T00:36:37.704Z,87.64
2023-01-22T00:39:04.795Z,87.01
2023-01-22T00:41:37.094Z,88.14
2023-01-22T00:44:04.507Z,87.37
2023-01-22T00:46:31.317Z,87.31
2023-01-22T00:49:00.091Z,87.09
2023-01-22T00:51:26.938Z,87.34
2023-01-22T00:53:54.040Z,87.20
2023-01-22T00:56:21.012Z,87.00
2023-01-22T00:58:47.947Z,87.23
2023-01-22T01:01:20.668Z,87.05
2023-01-22T01:03:47.503Z,86.91
2023-01-22T01:06:18.977Z,87.14
2023-01-22T01:08:48.208Z,87.48
2023-01-22T01:11:18.853Z,87.18
2023-01-22T01:13:45.784Z,87.68
2023-01-22T01:16:16.744Z,87.56
2023-01-22T01:18:45.876Z,86.78
2023-01-22T01:21:13.139Z,87.47
2023-01-22T01:23:42.403Z,86.93
2023-01-22T01:26:13.537Z,86.84
2023-01-22T01:28:42.578Z,86.90
2023-01-22T01:31:13.561Z,86.89
2023-01-22T01:33:41.422Z,86.97
2023-01-22T01:36:12.058Z,86.48
2023-01-22T01:38:40.012Z,86.67
2023-01-22T01:41:11.970Z,86.75
2023-01-22T01:43:38.899Z,86.58
2023-01-22T01:46:21.408Z,86.66
2023-01-22T01:48:52.986Z,86.38
2023-01-22T01:51:28.901Z,86.02
2023-01-22T01:53:57.403Z,86.00
2023-01-22T01:56:30.316Z,85.70
2023-01-22T01:59:03.774Z,85.55
2023-01-22T02:01:32.653Z,85.42
2023-01-22T02:04:01.225Z,84.94
2023-01-22T02:06:28.262Z,85.30
2023-01-22T02:08:56.882Z,85.42
2023-01-22T02:11:27.007Z,85.17
2023-01-22T02:14:02.659Z,85.35
2023-01-22T02:16:29.940Z,84.98
2023-01-22T02:18:56.833Z,85.05
2023-01-22T02:21:32.374Z,85.09
2023-01-22T02:23:59.941Z,85.33
2023-01-22T02:26:28.451Z,85.29
2023-01-22T02:28:56.868Z,85.06
2023-01-22T02:31:27.228Z,85.03
2023-01-22T02:33:54.471Z,85.04
2023-01-22T02:36:22.445Z,85.11
2023-01-22T02:38:52.088Z,85.04
2023-01-22T02:41:19.090Z,84.97
2023-01-22T02:43:46.405Z,85.10
2023-01-22T02:46:13.868Z,84.70
2023-01-22T02:48:40.924Z,84.77
2023-01-22T02:51:08.483Z,84.70
2023-01-22T02:53:35.461Z,84.70
2023-01-22T02:56:08.917Z,84.76
2023-01-22T02:58:36.933Z,84.87
2023-01-22T03:01:10.147Z,84.68
2023-01-22T03:03:37.480Z,84.64
2023-01-22T03:06:04.876Z,84.47
2023-01-22T03:08:31.953Z,84.83
2023-01-22T03:10:59.090Z,84.79
2023-01-22T03:13:28.768Z,84.58
2023-01-22T03:15:56.734Z,84.26
2023-01-22T03:18:23.573Z,84.62
2023-01-22T03:20:51.935Z,84.53
2023-01-22T03:23:18.984Z,84.58
2023-01-22T03:25:48.332Z,84.48
2023-01-22T03:28:15.215Z,84.21
2023-01-22T03:30:43.514Z,84.20
2023-01-22T03:33:10.434Z,84.61
2023-01-22T03:35:38.007Z,84.50
2023-01-22T03:38:12.733Z,84.15
2023-01-22T03:40:40.220Z,84.30
2023-01-22T03:43:07.554Z,84.53
2023-01-22T03:45:35.602Z,84.55
2023-01-22T03:48:05.928Z,84.69
2023-01-22T03:50:37.777Z,84.83
2023-01-22T03:53:05.777Z,85.04
2023-01-22T03:55:33.598Z,84.91
2023-01-22T03:58:00.444Z,85.29
2023-01-22T04:00:27.617Z,85.55
2023-01-22T04:02:54.585Z,85.13
2023-01-22T04:05:27.995Z,85.07
2023-01-22T04:07:54.790Z,85.15
2023-01-22T04:10:25.867Z,85.18
2023-01-22T04:12:52.972Z,85.20
2023-01-22T04:15:22.267Z,85.45
2023-01-22T04:17:50.458Z,85.22
2023-01-22T04:20:42.811Z,85.75
2023-01-22T04:23:44.887Z,85.53
2023-01-22T04:26:12.315Z,85.46
2023-01-22T04:28:39.068Z,85.51
2023-01-22T04:31:06.381Z,85.50
2023-01-22T04:33:53.563Z,85.98
2023-01-22T04:36:29.106Z,86.01
2023-01-22T04:38:56.180Z,86.38
2023-01-22T04:41:23.245Z,86.38
2023-01-22T04:43:50.097Z,86.47
2023-01-22T04:46:17.604Z,86.34
2023-01-22T04:48:44.508Z,86.43
2023-01-22T04:51:11.422Z,86.25
2023-01-22T04:53:39.641Z,86.71
2023-01-22T04:56:07.926Z,86.62
2023-01-22T04:58:34.964Z,86.44
2023-01-22T05:01:01.976Z,86.37
2023-01-22T05:03:28.994Z,86.24
2023-01-22T05:05:56.531Z,86.24
2023-01-22T05:08:23.344Z,86.40
2023-01-22T05:10:52.332Z,86.23
2023-01-22T05:13:28.885Z,86.32
2023-01-22T05:15:55.923Z,85.98
2023-01-22T05:18:24.736Z,86.13
2023-01-22T05:20:52.522Z,86.11
2023-01-22T05:23:21.616Z,86.02
2023-01-22T05:25:49.421Z,86.19
2023-01-22T05:28:22.204Z,86.22
2023-01-22T05:31:08.106Z,86.54
2023-01-22T05:33:42.113Z,86.09
2023-01-22T05:36:11.855Z,86.22
2023-01-22T05:38:39.278Z,86.33
2023-01-22T05:41:06.533Z,86.09
2023-01-22T05:43:39.541Z,86.15
2023-01-22T05:46:09.517Z,86.28
2023-01-22T05:48:56.710Z,86.28
2023-01-22T05:51:26.191Z,86.49
2023-01-22T05:53:53.827Z,86.41
2023-01-22T05:56:20.791Z,86.64
2023-01-22T05:58:49.513Z,86.67
2023-01-22T06:01:17.204Z,86.80
2023-01-22T06:03:47.913Z,86.31
2023-01-22T06:06:19.473Z,86.63
2023-01-22T06:08:48.235Z,86.43
2023-01-22T06:11:17.387Z,86.28
2023-01-22T06:13:46.248Z,86.14
2023-01-22T06:16:24.305Z,86.49
2023-01-22T06:19:10.490Z,86.17
2023-01-22T06:21:47.579Z,86.47
2023-01-22T06:24:14.668Z,86.78
2023-01-22T06:26:41.634Z,86.30
2023-01-22T06:29:11.262Z,88.74
2023-01-22T06:31:40.524Z,89.64
2023-01-22T06:34:09.306Z,89.58
2023-01-22T06:36:36.439Z,89.38
2023-01-22T06:39:05.169Z,89.14
2023-01-22T06:41:39.641Z,89.18
2023-01-22T06:44:10.276Z,89.01
2023-01-22T06:46:37.707Z,88.88
2023-01-22T06:49:11.201Z,88.60
2023-01-22T06:51:39.900Z,88.63
2023-01-22T06:54:07.409Z,88.52
2023-01-22T06:56:34.278Z,88.50
2023-01-22T06:59:03.432Z,88.27
2023-01-22T07:01:30.499Z,87.74
2023-01-22T07:03:57.348Z,87.97
2023-01-22T07:06:25.596Z,87.72
2023-01-22T07:08:52.397Z,87.62
2023-01-22T07:11:19.459Z,87.51
2023-01-22T07:13:46.319Z,87.51
2023-01-22T07:16:13.351Z,87.56
2023-01-22T07:18:40.371Z,87.45
2023-01-22T07:21:07.311Z,87.20
2023-01-22T07:23:35.584Z,87.27
2023-01-22T07:26:02.486Z,86.99
2023-01-22T07:28:29.249Z,87.17
2023-01-22T07:30:56.100Z,86.93
2023-01-22T07:33:23.094Z,86.90
2023-01-22T07:35:55.036Z,86.25
2023-01-22T07:38:22.365Z,86.59
2023-01-22T07:40:50.465Z,85.90
2023-01-22T07:43:17.337Z,85.96
2023-01-22T07:45:44.427Z,85.76
2023-01-22T07:48:11.869Z,85.70
2023-01-22T07:50:38.995Z,86.85
2023-01-22T07:53:06.675Z,86.45
2023-01-22T07:55:33.704Z,86.87
2023-01-22T07:58:05.548Z,86.26
2023-01-22T08:00:35.397Z,85.64
2023-01-22T08:03:04.909Z,84.97
2023-01-22T08:05:31.831Z,84.78
2023-01-22T08:07:58.985Z,84.65
2023-01-22T08:10:25.904Z,84.68
2023-01-22T08:12:52.728Z,84.07
2023-01-22T08:15:21.038Z,83.97
2023-01-22T08:17:49.650Z,83.91
2023-01-22T08:20:18.313Z,84.21
2023-01-22T08:22:45.387Z,84.13
2023-01-22T08:25:12.714Z,84.41
2023-01-22T08:27:39.601Z,84.01
2023-01-22T08:30:08.767Z,83.78
2023-01-22T08:32:37.891Z,84.28
2023-01-22T08:35:06.003Z,84.36
2023-01-22T08:37:32.771Z,84.31
2023-01-22T08:39:59.531Z,84.21
2023-01-22T08:42:26.437Z,84.22
2023-01-22T08:44:53.461Z,84.17
2023-01-22T08:47:20.246Z,83.99
2023-01-22T08:49:48.433Z,84.13
2023-01-22T08:52:15.701Z,83.61
2023-01-22T08:54:42.613Z,83.54
2023-01-22T08:57:09.546Z,84.01
2023-01-22T08:59:36.365Z,84.19
2023-01-22T09:02:03.591Z,83.56
2023-01-22T09:04:30.604Z,83.82
2023-01-22T09:06:58.737Z,83.73
2023-01-22T09:09:25.707Z,83.72
2023-01-22T09:11:52.483Z,83.48
2023-01-22T09:14:19.399Z,83.77
2023-01-22T09:16:46.316Z,83.79
2023-01-22T09:19:13.368Z,84.33
2023-01-22T09:21:40.363Z,83.98
2023-01-22T09:24:09.385Z,83.85
2023-01-22T09:26:36.955Z,84.05
2023-01-22T09:29:05.452Z,83.95
2023-01-22T09:31:32.380Z,84.37
2023-01-22T09:33:59.802Z,84.31
2023-01-22T09:36:27.175Z,84.26
2023-01-22T09:38:54.505Z,84.33
2023-01-22T09:41:29.889Z,84.76
2023-01-22T09:44:05.177Z,84.57
2023-01-22T09:46:43.016Z,83.97
2023-01-22T09:49:15.838Z,84.32
2023-01-22T09:51:46.948Z,84.74
2023-01-22T09:54:15.001Z,84.35
2023-01-22T09:56:47.038Z,83.87
2023-01-22T09:59:18.572Z,84.60
2023-01-22T10:01:52.465Z,83.75
2023-01-22T10:04:33.895Z,83.65
2023-01-22T10:07:04.193Z,83.64
2023-01-22T10:09:33.772Z,83.24
2023-01-22T10:12:11.882Z,82.55
2023-01-22T10:14:39.318Z,83.05
2023-01-22T10:17:21.457Z,83.45
2023-01-22T10:19:55.352Z,82.74
2023-01-22T10:22:24.957Z,82.39
2023-01-22T10:24:53.158Z,81.34
2023-01-22T10:27:32.081Z,81.64
2023-01-22T10:30:07.082Z,81.51
2023-01-22T10:32:34.128Z,80.89
2023-01-22T10:35:05.706Z,80.34
2023-01-22T10:37:44.943Z,80.75
2023-01-22T10:40:24.504Z,80.84
2023-01-22T10:43:06.032Z,80.30
2023-01-22T10:45:33.129Z,80.30
2023-01-22T10:48:05.788Z,80.30
2023-01-22T10:50:32.949Z,80.06
2023-01-22T10:52:59.803Z,80.27
2023-01-22T10:55:31.663Z,80.31
2023-01-22T10:58:06.543Z,79.51
2023-01-22T11:00:50.504Z,80.19
2023-01-22T11:03:22.097Z,80.20
2023-01-22T11:05:58.424Z,79.94
2023-01-22T11:08:38.518Z,80.57
2023-01-22T11:11:10.835Z,79.69
2023-01-22T11:13:50.680Z,80.07
2023-01-22T11:16:20.431Z,80.07
2023-01-22T11:18:55.844Z,80.66
2023-01-22T11:21:29.872Z,79.94
2023-01-22T11:24:08.672Z,79.71
2023-01-22T11:26:55.021Z,80.16
2023-01-22T11:29:50.611Z,79.38
2023-01-22T11:32:46.376Z,79.32
2023-01-22T11:35:25.350Z,79.59
2023-01-22T11:38:17.977Z,79.09
2023-01-22T11:41:05.329Z,80.63
2023-01-22T11:43:55.244Z,79.56
2023-01-22T11:46:51.616Z,79.63
2023-01-22T11:49:35.353Z,79.65
2023-01-22T11:52:22.060Z,79.42
2023-01-22T11:55:22.206Z,80.61
2023-01-22T11:58:08.594Z,79.88
2023-01-22T12:00:51.824Z,80.47
2023-01-22T12:04:00.191Z,80.56
2023-01-22T12:06:56.919Z,79.86
2023-01-22T12:09:34.909Z,80.67
2023-01-22T12:12:19.974Z,79.42
2023-01-22T12:15:04.616Z,78.65
2023-01-22T12:17:51.017Z,79.01
2023-01-22T12:20:52.289Z,79.15
2023-01-22T12:23:30.737Z,78.31
2023-01-22T12:26:04.425Z,78.06
2023-01-22T12:28:41.802Z,77.52
2023-01-22T12:31:19.327Z,77.50
2023-01-22T12:33:46.308Z,77.00
2023-01-22T12:36:21.585Z,76.76
2023-01-22T12:38:57.284Z,77.60
2023-01-22T12:41:46.306Z,77.44
2023-01-22T12:44:31.020Z,77.22
2023-01-22T12:47:13.022Z,77.96
2023-01-22T12:49:48.762Z,77.36
2023-01-22T12:52:35.640Z,76.40
2023-01-22T12:55:21.951Z,76.81
2023-01-22T12:57:49.161Z,76.94
2023-01-22T13:00:33.006Z,78.17
2023-01-22T13:03:01.369Z,78.43
2023-01-22T13:05:41.393Z,77.92
2023-01-22T13:08:27.876Z,77.12
2023-01-22T13:10:58.678Z,77.88
2023-01-22T13:13:31.950Z,78.10
2023-01-22T13:16:05.159Z,79.61
2023-01-22T13:18:41.488Z,78.76
2023-01-22T13:21:12.091Z,77.97
2023-01-22T13:23:45.897Z,78.20
2023-01-22T13:26:19.270Z,77.90
2023-01-22T13:28:53.411Z,78.26
2023-01-22T13:31:20.455Z,77.24
2023-01-22T13:34:00.019Z,76.86
2023-01-22T13:36:28.023Z,77.92
2023-01-22T13:38:59.143Z,77.63
2023-01-22T13:41:30.905Z,76.85
2023-01-22T13:43:59.190Z,76.90
2023-01-22T13:46:27.890Z,77.43
2023-01-22T13:49:11.715Z,76.72
2023-01-22T13:51:40.442Z,76.78
2023-01-22T13:54:21.807Z,77.42
2023-01-22T13:56:48.912Z,76.71
2023-01-22T13:59:21.243Z,76.75
2023-01-22T14:01:49.439Z,76.31
2023-01-22T14:04:35.291Z,76.01
2023-01-22T14:07:03.496Z,77.20
2023-01-22T14:09:35.544Z,77.15
2023-01-22T14:12:15.455Z,77.42
2023-01-22T14:14:42.774Z,76.64
2023-01-22T14:17:22.630Z,76.38
2023-01-22T14:19:50.502Z,76.61
2023-01-22T14:22:17.960Z,77.36
2023-01-22T14:24:46.099Z,76.18
2023-01-22T14:27:13.284Z,76.22
2023-01-22T14:29:40.397Z,76.82
2023-01-22T14:32:07.167Z,77.27
2023-01-22T14:34:33.997Z,76.97
2023-01-22T14:37:00.841Z,77.11
2023-01-22T14:39:32.204Z,76.53
2023-01-22T14:42:01.549Z,76.61
2023-01-22T14:44:28.465Z,76.56
2023-01-22T14:46:55.386Z,77.18
2023-01-22T14:49:22.381Z,76.35
2023-01-22T14:51:52.055Z,77.16
2023-01-22T14:54:19.399Z,76.75
2023-01-22T14:56:46.278Z,75.97
2023-01-22T14:59:14.489Z,75.80
2023-01-22T15:01:41.390Z,76.54
2023-01-22T15:04:08.268Z,76.27
2023-01-22T15:06:35.310Z,75.52
2023-01-22T15:09:02.117Z,77.13
2023-01-22T15:11:29.047Z,77.73
2023-01-22T15:13:55.950Z,76.80
2023-01-22T15:16:24.317Z,77.89
2023-01-22T15:18:54.891Z,78.59
2023-01-22T15:21:22.376Z,78.47
2023-01-22T15:23:49.172Z,78.58
2023-01-22T15:26:26.563Z,78.61
2023-01-22T15:28:54.987Z,79.96
2023-01-22T15:31:21.996Z,78.49
2023-01-22T15:33:50.609Z,78.22
2023-01-22T15:36:17.552Z,78.66
2023-01-22T15:38:44.333Z,78.48
2023-01-22T15:41:20.268Z,77.59
2023-01-22T15:43:51.275Z,77.71
2023-01-22T15:46:19.997Z,77.59
2023-01-22T15:48:47.564Z,77.26
2023-01-22T15:51:16.556Z,77.47
2023-01-22T15:53:48.946Z,77.56
2023-01-22T15:56:16.347Z,77.42
2023-01-22T15:58:44.259Z,77.73
2023-01-22T16:01:11.519Z,77.07
2023-01-22T16:03:38.574Z,77.49
2023-01-22T16:06:10.844Z,77.95
2023-01-22T16:08:40.319Z,78.09
2023-01-22T16:11:08.445Z,77.33
2023-01-22T16:13:35.973Z,77.67
2023-01-22T16:16:06.720Z,77.51
2023-01-22T16:18:35.440Z,76.82
2023-01-22T16:21:03.440Z,77.49
2023-01-22T16:23:31.867Z,77.44
2023-01-22T16:26:04.170Z,77.64
2023-01-22T16:28:31.421Z,77.94
2023-01-22T16:31:03.598Z,77.88
2023-01-22T16:33:34.299Z,77.61
2023-01-22T16:36:03.880Z,77.74
2023-01-22T16:38:31.869Z,77.42
2023-01-22T16:41:27.581Z,77.77
2023-01-22T16:43:58.981Z,77.98
2023-01-22T16:46:29.333Z,78.35
2023-01-22T16:48:59.831Z,78.26
2023-01-22T16:51:32.617Z,78.60
2023-01-22T16:53:59.454Z,78.86
2023-01-22T16:56:27.728Z,78.44
2023-01-22T16:58:54.757Z,78.69
2023-01-22T17:01:21.915Z,78.42
2023-01-22T17:03:48.782Z,78.38
2023-01-22T17:06:26.844Z,78.50
2023-01-22T17:08:54.725Z,78.62
2023-01-22T17:11:22.344Z,79.35
2023-01-22T17:13:50.695Z,78.83
2023-01-22T17:16:18.751Z,78.87
2023-01-22T17:18:46.555Z,79.25
2023-01-22T17:21:18.898Z,79.31
2023-01-22T17:23:46.069Z,78.91
2023-01-22T17:26:17.007Z,79.06
2023-01-22T17:28:44.389Z,78.87
2023-01-22T17:31:15.681Z,79.06
2023-01-22T17:33:43.610Z,78.97
2023-01-22T17:36:13.151Z,78.86
2023-01-22T17:38:40.364Z,79.19
2023-01-22T17:41:10.601Z,79.07
2023-01-22T17:43:38.175Z,79.25
2023-01-22T17:46:10.576Z,79.21
2023-01-22T17:48:39.981Z,79.65
2023-01-22T17:51:09.425Z,78.86
2023-01-22T17:53:38.692Z,79.17
2023-01-22T17:56:13.906Z,79.37
2023-01-22T17:58:42.983Z,79.35
2023-01-22T18:01:12.723Z,79.97
2023-01-22T18:03:41.707Z,79.47
2023-01-22T18:06:09.673Z,79.63
2023-01-22T18:08:37.622Z,79.82
2023-01-22T18:11:09.949Z,79.13
2023-01-22T18:13:38.547Z,79.65
2023-01-22T18:16:07.961Z,79.26
2023-01-22T18:18:35.753Z,79.86
2023-01-22T18:21:05.847Z,79.81
2023-01-22T18:23:32.931Z,79.31
2023-01-22T18:26:05.069Z,79.49
2023-01-22T18:28:33.349Z,79.74
2023-01-22T18:31:05.374Z,79.85
2023-01-22T18:33:32.728Z,80.31
2023-01-22T18:36:00.497Z,80.11
2023-01-22T18:38:29.112Z,80.20
2023-01-22T18:40:55.927Z,80.06
2023-01-22T18:43:23.206Z,79.39
2023-01-22T18:45:50.056Z,80.04
2023-01-22T18:48:17.065Z,79.63
2023-01-22T18:50:51.593Z,80.09
2023-01-22T18:53:19.287Z,79.81
2023-01-22T18:55:47.851Z,80.38
2023-01-22T18:58:14.782Z,79.83
2023-01-22T19:00:41.704Z,79.86
2023-01-22T19:03:08.859Z,79.89
2023-01-22T19:05:39.608Z,79.74
2023-01-22T19:08:06.698Z,79.79
2023-01-22T19:10:33.531Z,80.45
2023-01-22T19:13:01.999Z,80.38
2023-01-22T19:15:29.126Z,80.64
2023-01-22T19:17:55.955Z,80.21
2023-01-22T19:20:22.847Z,80.71
2023-01-22T19:22:49.699Z,80.53
2023-01-22T19:25:17.257Z,80.81
2023-01-22T19:27:44.357Z,81.08
2023-01-22T19:30:13.223Z,81.04
2023-01-22T19:32:40.115Z,81.50
2023-01-22T19:35:08.056Z,81.43
2023-01-22T19:37:35.102Z,81.65
2023-01-22T19:40:18.915Z,81.17
2023-01-22T19:42:45.844Z,81.47
2023-01-22T19:45:14.471Z,81.21
2023-01-22T19:47:41.369Z,82.12
2023-01-22T19:50:09.887Z,82.10
2023-01-22T19:52:36.824Z,82.21
2023-01-22T19:55:04.227Z,82.25
2023-01-22T19:57:31.357Z,81.59
2023-01-22T19:59:58.215Z,82.24
2023-01-22T20:02:27.255Z,81.82
2023-01-22T20:04:54.160Z,81.96
2023-01-22T20:07:21.090Z,81.68
2023-01-22T20:09:49.039Z,81.68
2023-01-22T20:12:16.066Z,81.88
2023-01-22T20:14:42.888Z,81.66
2023-01-22T20:17:10.380Z,82.22
2023-01-22T20:19:38.852Z,82.48
2023-01-22T20:22:06.081Z,82.68
2023-01-22T20:24:33.926Z,82.54
2023-01-22T20:27:00.769Z,82.99
2023-01-22T20:29:27.769Z,83.30
2023-01-22T20:31:55.930Z,83.01
2023-01-22T20:34:23.183Z,83.48
2023-01-22T20:36:51.752Z,83.33
2023-01-22T20:39:18.892Z,84.02
2023-01-22T20:41:46.111Z,83.83
2023-01-22T20:44:14.103Z,83.96
2023-01-22T20:46:41.035Z,84.49
2023-01-22T20:49:08.410Z,84.52
2023-01-22T20:51:35.672Z,84.83
2023-01-22T20:54:04.425Z,84.82
2023-01-22T20:56:33.773Z,85.19
2023-01-22T20:59:03.086Z,85.34
2023-01-22T21:01:30.789Z,84.85
2023-01-22T21:03:59.851Z,85.57
2023-01-22T21:06:29.404Z,85.57
2023-01-22T21:08:57.944Z,85.25
2023-01-22T21:11:29.128Z,85.85
2023-01-22T21:13:58.226Z,85.60
2023-01-22T21:16:27.747Z,85.29
2023-01-22T21:18:59.401Z,85.14
2023-01-22T21:21:28.193Z,84.84
2023-01-22T21:23:56.478Z,85.12
2023-01-22T21:26:27.810Z,85.32
2023-01-22T21:28:57.422Z,85.49
2023-01-22T21:31:25.357Z,85.67
2023-01-22T21:33:53.291Z,85.37
2023-01-22T21:36:20.189Z,85.79
2023-01-22T21:38:47.894Z,85.66
2023-01-22T21:41:18.356Z,86.24
2023-01-22T21:43:47.672Z,85.86
2023-01-22T21:46:16.022Z,86.24
2023-01-22T21:48:42.942Z,86.38
2023-01-22T21:51:09.831Z,86.06
2023-01-22T21:53:36.927Z,86.04
2023-01-22T21:56:04.535Z,85.90
2023-01-22T21:58:31.509Z,86.53
2023-01-22T22:01:05.145Z,86.33
2023-01-22T22:03:31.977Z,86.84
2023-01-22T22:06:01.225Z,86.62
2023-01-22T22:08:29.384Z,87.04
2023-01-22T22:10:56.743Z,87.04
2023-01-22T22:13:24.088Z,87.33
2023-01-22T22:15:50.937Z,87.49
2023-01-22T22:18:19.081Z,86.93
2023-01-22T22:20:46.034Z,87.44
2023-01-22T22:23:13.303Z,87.56
2023-01-22T22:25:40.101Z,87.23
2023-01-22T22:28:06.873Z,87.76
2023-01-22T22:30:34.801Z,88.21
2023-01-22T22:33:01.559Z,88.10
2023-01-22T22:35:30.259Z,88.10
2023-01-22T22:37:57.307Z,88.16
2023-01-22T22:40:24.187Z,87.97
2023-01-22T22:42:50.977Z,88.28
2023-01-22T22:45:18.127Z,88.49
2023-01-22T22:47:45.011Z,88.47
2023-01-22T22:50:11.908Z,88.43
2023-01-22T22:52:40.315Z,88.41
2023-01-22T22:55:08.210Z,88.25
2023-01-22T22:57:35.041Z,88.35
2023-01-22T23:00:01.888Z,88.41
2023-01-22T23:02:28.723Z,88.59
2023-01-22T23:04:55.606Z,88.86
2023-01-22T23:07:22.401Z,88.80
2023-01-22T23:09:50.894Z,89.00
2023-01-22T23:12:17.701Z,88.95
2023-01-22T23:14:44.495Z,88.62
2023-01-22T23:17:11.404Z,88.79
2023-01-22T23:19:38.352Z,88.84
2023-01-22T23:22:05.474Z,88.89
2023-01-22T23:24:32.244Z,89.07
2023-01-22T23:27:00.678Z,89.05
2023-01-22T23:29:28.155Z,89.37
2023-01-22T23:31:55.245Z,89.68
2023-01-22T23:34:23.316Z,89.94
2023-01-22T23:36:51.006Z,89.76
2023-01-22T23:39:20.838Z,89.07
2023-01-22T23:41:47.994Z,89.58
2023-01-22T23:44:16.418Z,89.55
2023-01-22T23:46:43.850Z,89.39
2023-01-22T23:49:10.750Z,89.48
2023-01-22T23:51:38.000Z,88.94
2023-01-22T23:54:05.198Z,88.74
2023-01-22T23:56:32.197Z,89.03
2023-01-22T23:58:59.953Z,88.78
